Wetterstation Vordersexau
Wetterdaten: Woche 19.12.11 - 25.12.11 (KW51)
Datum Zeit Temp. A. Feuchte A. Luftdruck Regen Wind Richtung Taupunkt Windchill Windben
19.12.2011 00:00 -1,6 C 86 % 1016,7 hPa 0,0 l/m 0,0 km/h W-NW -3,6 C -1,6 C 0,0 km/h
19.12.2011 01:00 -1,3 C 85 % 1016,5 hPa 0,0 l/m 0,0 km/h W-NW -3,5 C -1,3 C 0,0 km/h
19.12.2011 02:00 -1,1 C 86 % 1016,4 hPa 0,0 l/m 0,0 km/h W-NW -3,1 C -1,1 C 0,0 km/h
19.12.2011 03:00 -0,2 C 87 % 1015,9 hPa 0,0 l/m 0,0 km/h W-NW -2,1 C -0,2 C 0,0 km/h
19.12.2011 04:00 -0,4 C 87 % 1015,4 hPa 0,0 l/m 0,0 km/h W-NW -2,3 C -0,4 C 0,0 km/h
19.12.2011 05:00 -0,3 C 87 % 1015,9 hPa 0,0 l/m 13,6 km/h W-NW -2,2 C -6,5 C 7,6 km/h
19.12.2011 06:00 -0,6 C 86 % 1015,8 hPa 0,0 l/m 0,0 km/h W-NW -2,6 C -0,6 C 0,0 km/h
19.12.2011 07:00 -0,8 C 86 % 1016,0 hPa 0,0 l/m 0,0 km/h W-NW -2,8 C -0,8 C 0,0 km/h
19.12.2011 08:00 -0,7 C 86 % 1016,6 hPa 0,0 l/m 0,0 km/h W-NW -2,7 C -0,7 C 0,0 km/h
19.12.2011 09:00 0,2 C 85 % 1017,4 hPa 0,0 l/m 0,0 km/h W-NW -2,0 C 0,2 C 0,0 km/h
19.12.2011 10:00 0,4 C 85 % 1018,3 hPa 0,0 l/m 0,0 km/h W-NW -1,8 C 0,4 C 0,0 km/h
19.12.2011 11:00 1,6 C 85 % 1018,4 hPa 0,0 l/m 0,0 km/h W-NW -0,6 C 1,6 C 0,0 km/h
19.12.2011 12:00 5,0 C 83 % 1018,2 hPa 0,4 l/m 0,0 km/h W 2,4 C 5,0 C 0,0 km/h
19.12.2011 13:00 3,9 C 76 % 1018,0 hPa 0,0 l/m 0,0 km/h NW 0,1 C 3,9 C 0,0 km/h
19.12.2011 14:00 2,4 C 81 % 1018,2 hPa 0,0 l/m 0,0 km/h W -0,5 C 2,4 C 0,0 km/h
19.12.2011 15:00 2,1 C 82 % 1018,2 hPa 0,0 l/m 0,0 km/h S-SW -0,6 C 2,1 C 0,0 km/h
19.12.2011 16:00 1,2 C 84 % 1018,6 hPa 0,0 l/m 0,0 km/h W -1,2 C 1,2 C 0,0 km/h
19.12.2011 17:00 1,3 C 84 % 1018,9 hPa 0,0 l/m 7,8 km/h W -1,1 C -0,1 C 4,3 km/h
19.12.2011 18:00 0,9 C 85 % 1019,1 hPa 0,0 l/m 0,6 km/h W-SW -1,3 C 0,9 C 0,4 km/h
19.12.2011 19:00 0,9 C 84 % 1019,2 hPa 0,0 l/m 17,5 km/h SW -1,5 C -7,3 C 9,7 km/h
19.12.2011 20:00 0,8 C 83 % 1018,9 hPa 0,0 l/m 14,9 km/h W -1,8 C -6,0 C 8,3 km/h
19.12.2011 21:00 0,3 C 83 % 1018,8 hPa 0,0 l/m 1,9 km/h SW -2,2 C 0,3 C 1,1 km/h
19.12.2011 22:00 0,1 C 83 % 1018,4 hPa 0,0 l/m 8,4 km/h S-SO -2,4 C -1,9 C 4,7 km/h
19.12.2011 23:00 -0,6 C 83 % 1017,8 hPa 0,0 l/m 11,0 km/h S-SO -3,1 C -4,9 C 6,1 km/h
20.12.2011 00:00 -0,1 C 81 % 1016,7 hPa 0,0 l/m 14,9 km/h S-SO -3,0 C -7,0 C 8,3 km/h
20.12.2011 01:00 -0,2 C 81 % 1015,5 hPa 0,0 l/m 0,6 km/h SO -3,1 C -0,2 C 0,4 km/h
20.12.2011 02:00 0,3 C 79 % 1014,6 hPa 0,0 l/m 14,3 km/h S-SW -2,9 C -6,2 C 7,9 km/h
20.12.2011 03:00 0,6 C 77 % 1013,8 hPa 0,0 l/m 7,1 km/h SW -3,0 C -0,1 C 4,0 km/h
20.12.2011 04:00 1,4 C 69 % 1012,0 hPa 0,0 l/m 34,3 km/h W-NW -3,7 C -12,6 C 19,1 km/h
20.12.2011 05:00 -0,1 C 81 % 1010,8 hPa 0,0 l/m 0,0 km/h N-NO -3,0 C -0,1 C 0,0 km/h
20.12.2011 06:00 -0,4 C 85 % 1010,6 hPa 0,0 l/m 0,0 km/h O-NO -2,6 C -0,4 C 0,0 km/h
20.12.2011 07:00 -0,4 C 86 % 1010,0 hPa 0,0 l/m 0,0 km/h O -2,4 C -0,4 C 0,0 km/h
20.12.2011 08:00 0,5 C 87 % 1009,7 hPa 0,0 l/m 0,0 km/h W-SW -1,4 C 0,5 C 0,0 km/h
20.12.2011 09:00 1,8 C 86 % 1009,5 hPa 0,0 l/m 14,9 km/h W -0,3 C -4,7 C 8,3 km/h
20.12.2011 10:00 1,5 C 86 % 1009,2 hPa 0,4 l/m 18,1 km/h W -0,6 C -6,8 C 10,1 km/h
20.12.2011 11:00 1,5 C 86 % 1009,6 hPa 0,7 l/m 2,6 km/h W-SW -0,6 C 1,5 C 1,4 km/h
20.12.2011 12:00 1,6 C 86 % 1009,4 hPa 0,7 l/m 0,0 km/h N-NO -0,5 C 1,6 C 0,0 km/h
20.12.2011 13:00 1,5 C 86 % 1009,7 hPa 0,7 l/m 2,6 km/h NO -0,6 C 1,5 C 1,4 km/h
20.12.2011 14:00 1,3 C 86 % 1009,7 hPa 0,7 l/m 0,0 km/h O -0,8 C 1,3 C 0,0 km/h
20.12.2011 15:00 1,2 C 86 % 1010,7 hPa 0,0 l/m 0,0 km/h SO -0,9 C 1,2 C 0,0 km/h
20.12.2011 16:00 1,1 C 86 % 1011,6 hPa 1,8 l/m 0,0 km/h O-NO -1,0 C 1,1 C 0,0 km/h
20.12.2011 17:00 1,2 C 85 % 1012,5 hPa 0,7 l/m 0,0 km/h O-NO -1,0 C 1,2 C 0,0 km/h
20.12.2011 18:00 1,4 C 85 % 1013,3 hPa 0,0 l/m 0,0 km/h N -0,8 C 1,4 C 0,0 km/h
21.12.2011 07:00 2,8 C 83 % 1018,7 hPa 0,0 l/m 5,2 km/h W-SW 0,2 C 2,8 C 2,9 km/h
21.12.2011 08:00 3,1 C 87 % 1018,5 hPa 0,0 l/m 21,4 km/h W 1,2 C -6,2 C 11,9 km/h
21.12.2011 09:00 3,4 C 87 % 1018,7 hPa 0,0 l/m 18,1 km/h W 1,4 C -4,4 C 10,1 km/h
21.12.2011 10:00 2,6 C 87 % 1019,5 hPa 0,4 l/m 13,0 km/h W 0,7 C -2,7 C 7,2 km/h
21.12.2011 11:00 2,6 C 86 % 1018,8 hPa 0,0 l/m 9,7 km/h W 0,5 C -0,3 C 5,4 km/h
21.12.2011 12:00 2,9 C 86 % 1018,3 hPa 0,4 l/m 24,0 km/h W-SW 0,8 C -7,4 C 13,3 km/h
21.12.2011 13:00 3,0 C 86 % 1017,9 hPa 0,4 l/m 16,2 km/h W-SW 0,9 C -4,0 C 9,0 km/h
21.12.2011 14:00 3,6 C 87 % 1017,2 hPa 0,0 l/m 0,0 km/h W 1,6 C 3,6 C 0,0 km/h
21.12.2011 15:00 3,8 C 87 % 1017,1 hPa 0,0 l/m 5,2 km/h W 1,8 C 3,8 C 2,9 km/h
21.12.2011 16:00 3,9 C 86 % 1017,5 hPa 0,0 l/m 2,6 km/h W 1,8 C 3,9 C 1,4 km/h
21.12.2011 17:00 3,9 C 85 % 1017,8 hPa 0,0 l/m 11,0 km/h W 1,6 C 0,1 C 6,1 km/h
21.12.2011 18:00 3,4 C 87 % 1018,1 hPa 0,0 l/m 3,9 km/h W-NW 1,4 C 3,4 C 2,2 km/h
21.12.2011 19:00 3,2 C 86 % 1018,8 hPa 0,0 l/m 0,0 km/h W 1,1 C 3,2 C 0,0 km/h
21.12.2011 20:00 3,0 C 86 % 1019,1 hPa 0,4 l/m 0,0 km/h SO 0,9 C 3,0 C 0,0 km/h
21.12.2011 21:00 2,9 C 86 % 1019,4 hPa 0,0 l/m 0,0 km/h SO 0,8 C 2,9 C 0,0 km/h
21.12.2011 22:00 2,9 C 85 % 1019,6 hPa 0,4 l/m 0,0 km/h O-NO 0,6 C 2,9 C 0,0 km/h
21.12.2011 23:00 3,2 C 85 % 1020,2 hPa 0,7 l/m 0,0 km/h S-SO 0,9 C 3,2 C 0,0 km/h
22.12.2011 00:00 3,1 C 84 % 1020,4 hPa 0,7 l/m 0,0 km/h S-SO 0,7 C 3,1 C 0,0 km/h
22.12.2011 01:00 2,9 C 84 % 1020,7 hPa 0,0 l/m 0,0 km/h SO 0,5 C 2,9 C 0,0 km/h
22.12.2011 02:00 2,9 C 83 % 1021,3 hPa 0,4 l/m 0,0 km/h S-SO 0,3 C 2,9 C 0,0 km/h
22.12.2011 03:00 3,0 C 82 % 1021,8 hPa 0,4 l/m 0,0 km/h S-SO 0,2 C 3,0 C 0,0 km/h
22.12.2011 04:00 3,1 C 81 % 1021,8 hPa 0,4 l/m 0,0 km/h S-SO 0,2 C 3,1 C 0,0 km/h
22.12.2011 05:00 3,1 C 81 % 1021,8 hPa 0,4 l/m 0,0 km/h S-SO 0,2 C 3,1 C 0,0 km/h
22.12.2011 06:00 3,2 C 80 % 1022,3 hPa 0,0 l/m 0,0 km/h S-SO 0,1 C 3,2 C 0,0 km/h
22.12.2011 07:00 3,3 C 80 % 1022,4 hPa 0,0 l/m 0,0 km/h SO 0,2 C 3,3 C 0,0 km/h
22.12.2011 08:00 3,4 C 79 % 1023,0 hPa 0,4 l/m 0,0 km/h S-SO 0,1 C 3,4 C 0,0 km/h
22.12.2011 09:00 3,6 C 78 % 1022,6 hPa 1,1 l/m 0,0 km/h SO 0,1 C 3,6 C 0,0 km/h
22.12.2011 10:00 4,1 C 77 % 1022,9 hPa 0,0 l/m 0,0 km/h SO 0,4 C 4,1 C 0,0 km/h
22.12.2011 11:00 4,6 C 76 % 1023,1 hPa 0,4 l/m 0,0 km/h S-SO 0,7 C 4,6 C 0,0 km/h
22.12.2011 12:00 4,9 C 76 % 1022,5 hPa 0,7 l/m 0,0 km/h S-SO 1,0 C 4,9 C 0,0 km/h
22.12.2011 13:00 5,4 C 75 % 1022,0 hPa 1,8 l/m 0,0 km/h S-SO 1,3 C 5,4 C 0,0 km/h
22.12.2011 14:00 5,4 C 76 % 1022,0 hPa 1,8 l/m 0,0 km/h S-SO 1,5 C 5,4 C 0,0 km/h
22.12.2011 15:00 5,6 C 76 % 1022,1 hPa 2,5 l/m 0,0 km/h S-SO 1,7 C 5,6 C 0,0 km/h
22.12.2011 16:00 5,7 C 76 % 1022,7 hPa 1,4 l/m 0,0 km/h S-SO 1,8 C 5,7 C 0,0 km/h
22.12.2011 17:00 5,6 C 76 % 1023,0 hPa 0,7 l/m 0,0 km/h S-SO 1,7 C 5,6 C 0,0 km/h
22.12.2011 18:00 5,5 C 75 % 1023,6 hPa 0,0 l/m 0,0 km/h S-SO 1,4 C 5,5 C 0,0 km/h
22.12.2011 19:00 5,6 C 75 % 1024,4 hPa 0,4 l/m 0,0 km/h S-SO 1,5 C 5,6 C 0,0 km/h
22.12.2011 20:00 5,6 C 75 % 1024,7 hPa 0,4 l/m 0,0 km/h O-SO 1,5 C 5,6 C 0,0 km/h
22.12.2011 21:00 5,8 C 75 % 1025,0 hPa 0,0 l/m 0,0 km/h SO 1,7 C 5,8 C 0,0 km/h
22.12.2011 22:00 6,1 C 74 % 1025,2 hPa 0,0 l/m 0,0 km/h SO 1,8 C 6,1 C 0,0 km/h
22.12.2011 23:00 6,1 C 74 % 1025,8 hPa 0,4 l/m 0,0 km/h SO 1,8 C 6,1 C 0,0 km/h
23.12.2011 00:00 6,1 C 74 % 1025,4 hPa 0,7 l/m 0,0 km/h SO 1,8 C 6,1 C 0,0 km/h
23.12.2011 01:00 6,1 C 74 % 1025,1 hPa 0,0 l/m 0,0 km/h S-SO 1,8 C 6,1 C 0,0 km/h
23.12.2011 02:00 5,9 C 74 % 1025,3 hPa 0,0 l/m 0,0 km/h S-SO 1,6 C 5,9 C 0,0 km/h
23.12.2011 03:00 6,1 C 74 % 1025,2 hPa 0,0 l/m 0,0 km/h SO 1,8 C 6,1 C 0,0 km/h
23.12.2011 04:00 5,9 C 74 % 1024,8 hPa 0,0 l/m 0,0 km/h S-SO 1,6 C 5,9 C 0,0 km/h
23.12.2011 05:00 5,7 C 74 % 1024,8 hPa 0,0 l/m 0,0 km/h S-SO 1,4 C 5,7 C 0,0 km/h
23.12.2011 06:00 5,6 C 75 % 1024,9 hPa 0,0 l/m 0,6 km/h S-SO 1,5 C 5,6 C 0,4 km/h
23.12.2011 07:00 5,6 C 75 % 1025,1 hPa 0,0 l/m 3,9 km/h S-SO 1,5 C 5,6 C 2,2 km/h
23.12.2011 08:00 5,6 C 75 % 1024,7 hPa 0,0 l/m 1,9 km/h S-SO 1,5 C 5,6 C 1,1 km/h
23.12.2011 09:00 5,8 C 75 % 1024,7 hPa 0,0 l/m 0,0 km/h S-SO 1,7 C 5,8 C 0,0 km/h
23.12.2011 10:00 6,1 C 75 % 1024,7 hPa 0,0 l/m 1,9 km/h S-SO 2,0 C 6,1 C 1,1 km/h
23.12.2011 11:00 6,5 C 76 % 1023,9 hPa 0,0 l/m 1,9 km/h S-SO 2,6 C 6,5 C 1,1 km/h
23.12.2011 12:00 7,4 C 78 % 1023,1 hPa 0,0 l/m 0,0 km/h S-SO 3,8 C 7,4 C 0,0 km/h
23.12.2011 13:00 7,9 C 83 % 1022,0 hPa 0,0 l/m 0,0 km/h S 5,2 C 7,9 C 0,0 km/h
23.12.2011 14:00 8,7 C 85 % 1021,3 hPa 0,0 l/m 0,0 km/h W 6,3 C 8,7 C 0,0 km/h
23.12.2011 15:00 8,4 C 86 % 1020,5 hPa 0,0 l/m 0,0 km/h W-SW 6,2 C 8,4 C 0,0 km/h
23.12.2011 16:00 7,9 C 86 % 1019,7 hPa 0,0 l/m 2,6 km/h W 5,7 C 7,9 C 1,4 km/h
23.12.2011 17:00 7,4 C 86 % 1019,3 hPa 0,0 l/m 0,0 km/h W 5,2 C 7,4 C 0,0 km/h
23.12.2011 18:00 6,9 C 87 % 1018,8 hPa 0,0 l/m 0,0 km/h W 4,9 C 6,9 C 0,0 km/h
23.12.2011 19:00 6,8 C 87 % 1018,6 hPa 0,0 l/m 1,9 km/h NW 4,8 C 6,8 C 1,1 km/h
23.12.2011 20:00 7,5 C 85 % 1018,5 hPa 0,0 l/m 24,6 km/h S-SW 5,1 C -1,4 C 13,7 km/h
23.12.2011 21:00 7,6 C 83 % 1017,8 hPa 0,0 l/m 24,0 km/h W 4,9 C -1,1 C 13,3 km/h
23.12.2011 22:00 7,4 C 82 % 1017,8 hPa 0,0 l/m 29,2 km/h W-SW 4,5 C -2,8 C 16,2 km/h
23.12.2011 23:00 7,4 C 83 % 1017,2 hPa 0,0 l/m 33,7 km/h SW 4,7 C -3,8 C 18,7 km/h
24.12.2011 00:00 7,6 C 83 % 1016,5 hPa 0,0 l/m 36,3 km/h SW 4,9 C -4,0 C 20,2 km/h
24.12.2011 01:00 7,9 C 81 % 1015,8 hPa 0,0 l/m 22,7 km/h W-SW 4,8 C -0,3 C 12,6 km/h
24.12.2011 02:00 7,9 C 80 % 1015,3 hPa 0,0 l/m 24,0 km/h W 4,7 C -0,7 C 13,3 km/h
24.12.2011 03:00 7,5 C 83 % 1014,9 hPa 0,0 l/m 35,6 km/h N-NW 4,8 C -4,0 C 19,8 km/h
24.12.2011 04:00 6,9 C 86 % 1016,5 hPa 0,4 l/m 2,6 km/h NW 4,7 C 6,9 C 1,4 km/h
24.12.2011 05:00 6,3 C 82 % 1018,6 hPa 0,0 l/m 5,8 km/h N-NW 3,5 C 6,3 C 3,2 km/h
24.12.2011 06:00 5,9 C 81 % 1020,3 hPa 0,0 l/m 0,0 km/h NW 2,9 C 5,9 C 0,0 km/h
24.12.2011 07:00 5,0 C 84 % 1022,1 hPa 0,0 l/m 16,2 km/h N-NW 2,5 C -1,5 C 9,0 km/h
24.12.2011 08:00 4,7 C 85 % 1023,7 hPa 0,0 l/m 0,0 km/h W-NW 2,4 C 4,7 C 0,0 km/h
24.12.2011 09:00 3,9 C 85 % 1025,2 hPa 0,4 l/m 3,9 km/h W-NW 1,6 C 3,9 C 2,2 km/h
24.12.2011 10:00 3,6 C 86 % 1026,4 hPa 0,4 l/m 0,0 km/h SO 1,5 C 3,6 C 0,0 km/h
24.12.2011 11:00 3,3 C 87 % 1027,6 hPa 0,4 l/m 5,2 km/h W-SW 1,3 C 3,3 C 2,9 km/h
24.12.2011 12:00 2,6 C 87 % 1028,1 hPa 0,7 l/m 4,5 km/h W 0,7 C 2,6 C 2,5 km/h
24.12.2011 13:00 3,0 C 87 % 1028,4 hPa 0,4 l/m 2,6 km/h S-SO 1,1 C 3,0 C 1,4 km/h
24.12.2011 14:00 3,1 C 87 % 1028,8 hPa 0,4 l/m 0,0 km/h S-SO 1,2 C 3,1 C 0,0 km/h
24.12.2011 15:00 3,9 C 87 % 1029,5 hPa 0,0 l/m 7,1 km/h S-SO 1,9 C 3,3 C 4,0 km/h
24.12.2011 16:00 3,3 C 87 % 1030,1 hPa 0,0 l/m 0,0 km/h SO 1,3 C 3,3 C 0,0 km/h
24.12.2011 17:00 2,9 C 86 % 1030,8 hPa 0,0 l/m 0,0 km/h O-SO 0,8 C 2,9 C 0,0 km/h
24.12.2011 18:00 2,7 C 86 % 1031,2 hPa 0,0 l/m 0,0 km/h NO 0,6 C 2,7 C 0,0 km/h
24.12.2011 19:00 2,4 C 86 % 1032,2 hPa 0,0 l/m 0,0 km/h SO 0,3 C 2,4 C 0,0 km/h
24.12.2011 20:00 1,8 C 86 % 1032,4 hPa 0,0 l/m 0,0 km/h SO -0,3 C 1,8 C 0,0 km/h
24.12.2011 21:00 0,9 C 86 % 1032,7 hPa 0,0 l/m 0,0 km/h O-SO -1,2 C 0,9 C 0,0 km/h
24.12.2011 22:00 0,8 C 86 % 1032,7 hPa 0,0 l/m 0,0 km/h SO -1,3 C 0,8 C 0,0 km/h
24.12.2011 23:00 0,2 C 86 % 1033,0 hPa 0,0 l/m 0,0 km/h O-NO -1,9 C 0,2 C 0,0 km/h
25.12.2011 00:00 0,2 C 85 % 1032,8 hPa 0,0 l/m 0,0 km/h O-NO -2,0 C 0,2 C 0,0 km/h
25.12.2011 01:00 -0,4 C 86 % 1032,7 hPa 0,0 l/m 1,3 km/h SO -2,4 C -0,4 C 0,7 km/h
25.12.2011 02:00 -0,6 C 85 % 1032,7 hPa 0,0 l/m 0,0 km/h SO -2,8 C -0,6 C 0,0 km/h
25.12.2011 03:00 0,3 C 84 % 1033,0 hPa 0,0 l/m 0,0 km/h S-SO -2,1 C 0,3 C 0,0 km/h
25.12.2011 04:00 0,3 C 84 % 1033,1 hPa 0,0 l/m 0,0 km/h S-SO -2,1 C 0,3 C 0,0 km/h
25.12.2011 05:00 0,6 C 83 % 1033,4 hPa 0,0 l/m 0,0 km/h SO -1,9 C 0,6 C 0,0 km/h
25.12.2011 06:00 -0,2 C 84 % 1033,4 hPa 0,0 l/m 0,0 km/h SO -2,6 C -0,2 C 0,0 km/h
25.12.2011 07:00 -1,1 C 83 % 1033,8 hPa 0,0 l/m 0,0 km/h SO -3,6 C -1,1 C 0,0 km/h
25.12.2011 08:00 -0,9 C 84 % 1033,9 hPa 0,0 l/m 0,0 km/h S-SO -3,3 C -0,9 C 0,0 km/h
25.12.2011 09:00 2,4 C 79 % 1034,2 hPa 0,0 l/m 0,0 km/h O-SO -0,9 C 2,4 C 0,0 km/h
25.12.2011 10:00 2,4 C 81 % 1034,9 hPa 0,0 l/m 0,0 km/h S-SO -0,5 C 2,4 C 0,0 km/h
25.12.2011 11:00 3,6 C 80 % 1035,3 hPa 0,0 l/m 1,9 km/h SO 0,5 C 3,6 C 1,1 km/h
25.12.2011 12:00 5,5 C 85 % 1034,9 hPa 0,0 l/m 0,0 km/h SO 3,2 C 5,5 C 0,0 km/h
25.12.2011 13:00 6,2 C 86 % 1034,4 hPa 0,0 l/m 0,0 km/h S-SO 4,0 C 6,2 C 0,0 km/h
25.12.2011 14:00 6,2 C 83 % 1033,8 hPa 0,0 l/m 0,0 km/h S 3,5 C 6,2 C 0,0 km/h
25.12.2011 15:00 5,9 C 82 % 1034,2 hPa 0,0 l/m 0,0 km/h S-SO 3,1 C 5,9 C 0,0 km/h
25.12.2011 16:00 4,5 C 84 % 1033,8 hPa 0,0 l/m 0,0 km/h O-NO 2,0 C 4,5 C 0,0 km/h
25.12.2011 17:00 3,2 C 87 % 1035,5 hPa 0,0 l/m 0,0 km/h O-SO 1,2 C 3,2 C 0,0 km/h
25.12.2011 18:00 3,3 C 87 % 1035,7 hPa 0,0 l/m 0,0 km/h SO 1,3 C 3,3 C 0,0 km/h
25.12.2011 19:00 2,9 C 87 % 1035,8 hPa 0,0 l/m 1,9 km/h S-SO 1,0 C 2,9 C 1,1 km/h
25.12.2011 20:00 3,6 C 87 % 1035,9 hPa 0,0 l/m 14,3 km/h SO 1,6 C -2,2 C 7,9 km/h
25.12.2011 21:00 2,8 C 87 % 1036,4 hPa 0,0 l/m 4,5 km/h SO 0,9 C 2,8 C 2,5 km/h
25.12.2011 22:00 3,4 C 87 % 1036,3 hPa 0,0 l/m 0,0 km/h SO 1,4 C 3,4 C 0,0 km/h
25.12.2011 23:00 3,2 C 87 % 1037,0 hPa 0,0 l/m 0,0 km/h SO 1,2 C 3,2 C 0,0 km/h
Min-Datum _ 19.12.11 20.12.11 20.12.11 - 19.12.11 - 20.12.11 20.12.11 19.12.11
_ Min-Zeit 00:30 04:30 10:30 - 00:30 - 04:30 04:30 00:30
Minimum _ -1,6 C 69 % 1009,2 hPa - 0,0 km/h - -3,7 C -12,6 C 0,0 km/h
Max-Datum _ 23.12.11 19.12.11 25.12.11 22.12.11 24.12.11 - 23.12.11 23.12.11 24.12.11
_ Max-Zeit 14:30 03:30 23:30 15:30 00:30 - 14:30 14:30 00:30
Maximum _ 8,7 C 87 % 1037,0 hPa 2,5 l/m 36,3 km/h
SW
- 6,3 C 8,7 C 20,2 km/h
SW
Durchschnitt _ 3,3 C 83 % 1022,3 hPa #26,0 l/m 4,1 km/h S-SO 0,6 C 1,9 C 2,3 km/h
www.sexauwetter.de